createdAt,value
2022-10-11T00:00:18.905Z,12.15
2022-10-11T00:03:06.757Z,12.52
2022-10-11T00:05:34.719Z,15.18
2022-10-11T00:08:05.623Z,11.20
2022-10-11T00:10:33.764Z,16.85
2022-10-11T00:13:01.221Z,12.93
2022-10-11T00:15:28.418Z,12.75
2022-10-11T00:17:56.431Z,15.23
2022-10-11T00:20:23.883Z,13.82
2022-10-11T00:22:51.052Z,14.40
2022-10-11T00:25:18.771Z,13.93
2022-10-11T00:27:46.382Z,12.95
2022-10-11T00:30:13.841Z,11.60
2022-10-11T00:32:41.035Z,16.23
2022-10-11T00:35:09.190Z,15.27
2022-10-11T00:37:38.337Z,12.00
2022-10-11T00:40:09.159Z,12.60
2022-10-11T00:42:36.657Z,14.65
2022-10-11T00:45:54.188Z,14.88
2022-10-11T00:48:57.979Z,10.45
2022-10-11T00:51:34.086Z,16.15
2022-10-11T00:54:02.775Z,11.88
2022-10-11T00:56:40.892Z,14.25
2022-10-11T00:59:16.452Z,14.20
2022-10-11T01:01:43.921Z,16.52
2022-10-11T01:04:11.551Z,14.93
2022-10-11T01:06:40.304Z,12.48
2022-10-11T01:09:07.836Z,13.05
2022-10-11T01:11:37.923Z,12.13
2022-10-11T01:14:23.540Z,13.07
2022-10-11T01:16:56.317Z,12.60
2022-10-11T01:19:35.230Z,11.82
2022-10-11T01:22:34.724Z,11.93
2022-10-11T01:25:16.832Z,11.73
2022-10-11T01:27:56.256Z,14.18
2022-10-11T01:30:24.563Z,15.63
2022-10-11T01:33:03.557Z,14.02
2022-10-11T01:35:41.606Z,11.77
2022-10-11T01:38:25.493Z,12.43
2022-10-11T01:41:10.543Z,12.43
2022-10-11T01:43:40.926Z,15.43
2022-10-11T01:46:09.606Z,15.98
2022-10-11T01:48:56.586Z,12.68
2022-10-11T01:51:28.201Z,14.88
2022-10-11T01:54:08.994Z,12.18
2022-10-11T01:56:54.482Z,15.15
2022-10-11T01:59:33.725Z,12.95
2022-10-11T02:02:22.488Z,11.50
2022-10-11T02:04:58.940Z,13.57
2022-10-11T02:07:54.117Z,14.52
2022-10-11T02:10:36.685Z,13.05
2022-10-11T02:13:08.534Z,16.52
2022-10-11T02:15:39.892Z,14.23
2022-10-11T02:18:13.678Z,13.93
2022-10-11T02:20:42.947Z,14.85
2022-10-11T02:23:32.724Z,12.35
2022-10-11T02:26:03.739Z,13.27
2022-10-11T02:28:35.485Z,13.07
2022-10-11T02:31:06.850Z,13.70
2022-10-11T02:33:44.159Z,13.30
2022-10-11T02:36:17.964Z,15.77
2022-10-11T02:38:49.949Z,16.42
2022-10-11T02:41:27.414Z,14.85
2022-10-11T02:44:16.835Z,15.80
2022-10-11T02:46:46.728Z,12.88
2022-10-11T02:49:15.433Z,17.83
2022-10-11T02:51:43.001Z,16.27
2022-10-11T02:54:10.292Z,12.43
2022-10-11T02:56:37.711Z,14.70
2022-10-11T02:59:04.858Z,12.23
2022-10-11T03:01:32.120Z,15.40
2022-10-11T03:03:59.635Z,16.52
2022-10-11T03:06:26.823Z,12.60
2022-10-11T03:08:53.969Z,16.05
2022-10-11T03:11:21.380Z,14.52
2022-10-11T03:13:48.587Z,17.13
2022-10-11T03:16:15.792Z,15.93
2022-10-11T03:18:43.412Z,14.43
2022-10-11T03:21:10.773Z,15.00
2022-10-11T03:23:37.959Z,18.45
2022-10-11T03:26:05.861Z,13.60
2022-10-11T03:28:33.320Z,12.88
2022-10-11T03:31:00.577Z,15.68
2022-10-11T03:33:28.001Z,18.10
2022-10-11T03:35:55.168Z,14.15
2022-10-11T03:38:22.858Z,13.13
2022-10-11T03:40:50.623Z,15.00
2022-10-11T03:43:17.985Z,13.98
2022-10-11T03:45:45.252Z,13.25
2022-10-11T03:48:13.121Z,14.65
2022-10-11T03:50:40.342Z,15.88
2022-10-11T03:53:07.894Z,16.13
2022-10-11T03:55:35.332Z,15.35
2022-10-11T03:58:02.468Z,11.73
2022-10-11T04:00:29.657Z,14.80
2022-10-11T04:02:57.097Z,14.52
2022-10-11T04:05:24.269Z,15.57
2022-10-11T04:07:51.741Z,14.95
2022-10-11T04:10:19.205Z,15.90
2022-10-11T04:12:46.492Z,17.33
2022-10-11T04:15:13.785Z,12.55
2022-10-11T04:17:41.549Z,17.77
2022-10-11T04:20:09.506Z,17.60
2022-10-11T04:22:36.810Z,19.65
2022-10-11T04:25:05.313Z,12.82
2022-10-11T04:27:32.475Z,13.73
2022-10-11T04:29:59.697Z,20.67
2022-10-11T04:32:27.532Z,16.15
2022-10-11T04:34:54.730Z,21.02
2022-10-11T04:37:21.934Z,19.90
2022-10-11T04:39:49.617Z,19.70
2022-10-11T04:42:16.956Z,16.73
2022-10-11T04:44:44.130Z,16.98
2022-10-11T04:47:11.853Z,16.67
2022-10-11T04:49:39.151Z,19.33
2022-10-11T04:52:06.438Z,14.43
2022-10-11T04:54:33.881Z,16.05
2022-10-11T04:57:01.164Z,20.05
2022-10-11T04:59:28.365Z,15.93
2022-10-11T05:01:55.907Z,22.55
2022-10-11T05:04:23.071Z,19.80
2022-10-11T05:06:50.349Z,15.57
2022-10-11T05:09:17.796Z,17.50
2022-10-11T05:11:45.101Z,17.88
2022-10-11T05:14:12.396Z,17.08
2022-10-11T05:16:39.841Z,17.05
2022-10-11T05:19:07.046Z,19.27
2022-10-11T05:21:34.219Z,19.73
2022-10-11T05:24:01.656Z,24.33
2022-10-11T05:26:29.145Z,26.45
2022-10-11T05:28:56.767Z,20.42
2022-10-11T05:31:24.638Z,18.48
2022-10-11T05:33:51.834Z,17.80
2022-10-11T05:36:19.090Z,25.10
2022-10-11T05:38:46.751Z,22.20
2022-10-11T05:41:15.453Z,20.80
2022-10-11T05:43:44.556Z,21.50
2022-10-11T05:46:13.195Z,27.25
2022-10-11T05:48:41.003Z,17.15
2022-10-11T05:51:10.537Z,23.70
2022-10-11T05:53:38.992Z,26.27
2022-10-11T05:56:17.036Z,21.27
2022-10-11T05:58:44.392Z,19.13
2022-10-11T06:01:23.480Z,46.03
2022-10-11T06:03:51.345Z,21.98
2022-10-11T06:06:19.912Z,20.65
2022-10-11T06:08:48.142Z,23.33
2022-10-11T06:11:21.242Z,17.38
2022-10-11T06:13:49.205Z,17.90
2022-10-11T06:16:16.513Z,20.65
2022-10-11T06:18:43.761Z,21.77
2022-10-11T06:21:11.156Z,22.38
2022-10-11T06:23:38.313Z,16.42
2022-10-11T06:26:08.906Z,20.38
2022-10-11T06:28:37.232Z,21.38
2022-10-11T06:31:06.319Z,19.90
2022-10-11T06:33:34.481Z,26.30
2022-10-11T06:36:05.384Z,21.35
2022-10-11T06:38:33.015Z,22.83
2022-10-11T06:41:13.923Z,21.70
2022-10-11T06:43:41.144Z,22.95
2022-10-11T06:46:08.798Z,22.85
2022-10-11T06:48:40.847Z,20.65
2022-10-11T06:51:11.435Z,22.02
2022-10-11T06:53:39.254Z,20.25
2022-10-11T06:56:09.509Z,20.30
2022-10-11T06:58:38.096Z,22.13
2022-10-11T07:01:09.289Z,21.52
2022-10-11T07:03:36.908Z,23.50
2022-10-11T07:06:12.109Z,20.02
2022-10-11T07:08:40.577Z,23.52
2022-10-11T07:11:11.544Z,21.85
2022-10-11T07:13:39.962Z,23.92
2022-10-11T07:16:10.517Z,20.90
2022-10-11T07:18:38.872Z,21.40
2022-10-11T07:21:08.643Z,31.00
2022-10-11T07:23:36.244Z,22.27
2022-10-11T07:26:04.644Z,21.50
2022-10-11T07:28:32.330Z,21.92
2022-10-11T07:31:05.120Z,24.33
2022-10-11T07:33:32.517Z,24.50
2022-10-11T07:35:59.788Z,21.70
2022-10-11T07:38:27.868Z,22.23
2022-10-11T07:40:55.324Z,25.92
2022-10-11T07:43:22.509Z,23.33
2022-10-11T07:45:54.419Z,29.70
2022-10-11T07:48:21.943Z,23.05
2022-10-11T07:50:49.452Z,20.77
2022-10-11T07:53:16.946Z,19.80
2022-10-11T07:55:44.156Z,20.73
2022-10-11T07:58:13.180Z,18.00
2022-10-11T08:00:42.778Z,18.33
2022-10-11T08:03:11.540Z,18.05
2022-10-11T08:05:39.266Z,19.42
2022-10-11T08:08:06.843Z,19.70
2022-10-11T08:10:38.771Z,25.50
2022-10-11T08:13:06.220Z,18.25
2022-10-11T08:15:33.643Z,17.13
2022-10-11T08:18:01.106Z,19.00
2022-10-11T08:20:28.397Z,15.55
2022-10-11T08:22:55.963Z,15.52
2022-10-11T08:25:23.257Z,22.40
2022-10-11T08:27:50.656Z,16.92
2022-10-11T08:30:18.129Z,19.05
2022-10-11T08:32:45.349Z,17.65
2022-10-11T08:35:12.737Z,17.27
2022-10-11T08:37:40.231Z,14.68
2022-10-11T08:40:08.099Z,15.35
2022-10-11T08:43:06.445Z,13.95
2022-10-11T08:45:46.175Z,15.48
2022-10-11T08:48:18.537Z,14.02
2022-10-11T08:50:49.693Z,14.80
2022-10-11T08:53:37.178Z,12.88
2022-10-11T08:56:05.356Z,18.63
2022-10-11T08:59:01.017Z,13.40
2022-10-11T09:01:29.422Z,13.88
2022-10-11T09:04:02.926Z,12.95
2022-10-11T09:06:41.900Z,12.15
2022-10-11T09:09:32.853Z,16.55
2022-10-11T09:12:32.225Z,12.73
2022-10-11T09:15:11.984Z,12.88
2022-10-11T09:18:11.555Z,14.30
2022-10-11T09:20:57.549Z,18.30
2022-10-11T09:23:35.157Z,9.15
2022-10-11T09:26:10.693Z,12.88
2022-10-11T09:29:08.082Z,9.23
2022-10-11T09:31:35.487Z,9.30
2022-10-11T09:34:15.050Z,10.07
2022-10-11T09:36:54.415Z,9.77
2022-10-11T09:39:36.594Z,10.73
2022-10-11T09:42:09.674Z,8.43
2022-10-11T09:44:38.561Z,8.13
2022-10-11T09:47:06.724Z,10.27
2022-10-11T09:49:40.962Z,11.10
2022-10-11T09:52:20.708Z,8.75
2022-10-11T09:54:57.181Z,12.40
2022-10-11T09:57:33.547Z,13.48
2022-10-11T10:00:22.449Z,9.70
2022-10-11T10:02:53.346Z,12.10
2022-10-11T10:05:22.332Z,9.48
2022-10-11T10:08:20.327Z,10.45
2022-10-11T10:10:59.425Z,11.68
2022-10-11T10:13:42.921Z,14.50
2022-10-11T10:16:26.862Z,9.90
2022-10-11T10:18:55.820Z,8.82
2022-10-11T10:21:30.552Z,10.63
2022-10-11T10:24:03.038Z,8.52
2022-10-11T10:26:32.768Z,7.78
2022-10-11T10:28:59.907Z,9.75
2022-10-11T10:31:44.420Z,9.18
2022-10-11T10:34:29.874Z,7.03
2022-10-11T10:37:03.873Z,7.85
2022-10-11T10:40:09.437Z,8.30
2022-10-11T10:42:37.326Z,7.30
2022-10-11T10:45:12.177Z,7.97
2022-10-11T10:47:52.198Z,9.73
2022-10-11T10:50:26.859Z,10.43
2022-10-11T10:52:56.529Z,6.82
2022-10-11T10:55:40.229Z,7.40
2022-10-11T10:58:25.054Z,8.57
2022-10-11T11:01:16.559Z,5.40
2022-10-11T11:04:14.808Z,4.80
2022-10-11T11:06:59.434Z,5.68
2022-10-11T11:10:00.828Z,4.88
2022-10-11T11:12:49.559Z,5.85
2022-10-11T11:15:37.962Z,6.38
2022-10-11T11:18:17.725Z,4.82
2022-10-11T11:20:59.764Z,4.95
2022-10-11T11:23:44.912Z,7.38
2022-10-11T11:26:32.793Z,6.63
2022-10-11T11:29:15.720Z,6.45
2022-10-11T11:32:10.558Z,6.70
2022-10-11T11:34:44.158Z,6.55
2022-10-11T11:37:24.028Z,7.80
2022-10-11T11:40:07.800Z,5.47
2022-10-11T11:42:57.861Z,7.60
2022-10-11T11:45:51.720Z,7.63
2022-10-11T11:48:24.682Z,9.15
2022-10-11T11:51:04.339Z,6.25
2022-10-11T11:53:43.423Z,5.38
2022-10-11T11:56:31.255Z,6.93
2022-10-11T11:59:10.184Z,8.63
2022-10-11T12:01:49.803Z,7.13
2022-10-11T12:04:28.611Z,8.50
2022-10-11T12:07:18.577Z,4.90
2022-10-11T12:09:50.728Z,4.47
2022-10-11T12:12:37.144Z,5.90
2022-10-11T12:15:10.245Z,6.03
2022-10-11T12:17:56.029Z,5.68
2022-10-11T12:20:27.188Z,7.78
2022-10-11T12:23:01.988Z,8.27
2022-10-11T12:25:33.286Z,8.00
2022-10-11T12:28:20.802Z,13.55
2022-10-11T12:30:48.066Z,7.93
2022-10-11T12:33:35.908Z,6.53
2022-10-11T12:36:24.055Z,8.32
2022-10-11T12:39:22.495Z,4.18
2022-10-11T12:41:50.316Z,5.63
2022-10-11T12:44:20.490Z,3.95
2022-10-11T12:46:50.647Z,9.10
2022-10-11T12:49:55.579Z,4.57
2022-10-11T12:52:44.384Z,5.18
2022-10-11T12:56:05.402Z,7.72
2022-10-11T12:58:41.410Z,6.15
2022-10-11T13:01:17.586Z,6.25
2022-10-11T13:03:49.197Z,5.93
2022-10-11T13:06:24.998Z,7.13
2022-10-11T13:09:24.718Z,6.20
2022-10-11T13:12:01.176Z,4.07
2022-10-11T13:14:31.245Z,6.65
2022-10-11T13:17:04.425Z,5.63
2022-10-11T13:19:36.070Z,6.20
2022-10-11T13:22:13.942Z,6.38
2022-10-11T13:24:42.558Z,7.88
2022-10-11T13:27:21.914Z,5.78
2022-10-11T13:29:51.743Z,9.68
2022-10-11T13:32:26.217Z,6.82
2022-10-11T13:34:57.052Z,6.20
2022-10-11T13:37:26.804Z,6.18
2022-10-11T13:39:56.234Z,4.95
2022-10-11T13:42:30.874Z,5.75
2022-10-11T13:44:59.948Z,5.82
2022-10-11T13:47:30.279Z,7.78
2022-10-11T13:50:24.315Z,7.82
2022-10-11T13:53:04.013Z,5.13
2022-10-11T13:55:34.058Z,6.47
2022-10-11T13:58:09.010Z,6.47
2022-10-11T14:00:39.850Z,5.38
2022-10-11T14:03:13.272Z,6.10
2022-10-11T14:05:52.385Z,4.80
2022-10-11T14:08:31.700Z,5.30
2022-10-11T14:11:05.142Z,4.97
2022-10-11T14:13:38.641Z,5.22
2022-10-11T14:16:21.171Z,6.65
2022-10-11T14:19:02.039Z,4.43
2022-10-11T14:21:54.192Z,5.10
2022-10-11T14:24:22.306Z,8.43
2022-10-11T14:26:54.623Z,4.20
2022-10-11T14:29:29.232Z,4.55
2022-10-11T14:32:03.989Z,5.25
2022-10-11T14:34:31.789Z,5.88
2022-10-11T14:36:59.532Z,6.97
2022-10-11T14:39:29.723Z,8.88
2022-10-11T14:41:57.287Z,7.25
2022-10-11T14:44:25.102Z,8.43
2022-10-11T14:46:54.717Z,4.85
2022-10-11T14:49:28.170Z,6.60
2022-10-11T14:51:57.672Z,10.02
2022-10-11T14:54:27.540Z,6.97
2022-10-11T14:56:57.410Z,8.07
2022-10-11T14:59:27.405Z,7.07
2022-10-11T15:01:55.072Z,9.10
2022-10-11T15:04:26.693Z,6.55
2022-10-11T15:06:56.455Z,8.10
2022-10-11T15:09:28.825Z,7.93
2022-10-11T15:11:56.892Z,7.35
2022-10-11T15:14:25.261Z,9.88
2022-10-11T15:16:53.116Z,8.00
2022-10-11T15:19:23.757Z,9.38
2022-10-11T15:21:51.802Z,6.95
2022-10-11T15:24:22.037Z,8.43
2022-10-11T15:26:50.532Z,8.75
2022-10-11T15:29:18.141Z,6.55
2022-10-11T15:31:46.528Z,7.38
2022-10-11T15:34:14.389Z,12.25
2022-10-11T15:36:41.890Z,9.80
2022-10-11T15:39:33.946Z,10.85
2022-10-11T15:42:01.356Z,21.85
2022-10-11T15:44:28.607Z,24.08
2022-10-11T15:46:56.354Z,16.52
2022-10-11T15:49:23.594Z,15.52
2022-10-11T15:51:51.224Z,15.70
2022-10-11T15:54:18.455Z,12.95
2022-10-11T15:56:45.750Z,13.50
2022-10-11T15:59:13.239Z,14.20
2022-10-11T16:01:40.879Z,13.30
2022-10-11T16:04:08.112Z,16.77
2022-10-11T16:06:35.552Z,16.88
2022-10-11T16:09:02.713Z,29.67
2022-10-11T16:11:32.953Z,30.17
2022-10-11T16:14:00.189Z,22.83
2022-10-11T16:16:27.703Z,23.27
2022-10-11T16:18:54.983Z,19.42
2022-10-11T16:21:23.971Z,17.02
2022-10-11T16:23:51.153Z,20.63
2022-10-11T16:26:18.723Z,22.33
2022-10-11T16:28:47.718Z,16.02
2022-10-11T16:31:18.390Z,18.92
2022-10-11T16:33:46.368Z,15.57
2022-10-11T16:36:32.195Z,15.82
2022-10-11T16:39:00.325Z,24.98
2022-10-11T16:41:27.999Z,14.82
2022-10-11T16:43:55.964Z,16.42
2022-10-11T16:46:29.641Z,12.57
2022-10-11T16:48:57.750Z,19.70
2022-10-11T16:51:25.425Z,16.35
2022-10-11T16:53:53.372Z,13.82
2022-10-11T16:56:22.773Z,17.50
2022-10-11T16:58:54.865Z,19.77
2022-10-11T17:01:22.426Z,24.08
2022-10-11T17:03:50.810Z,18.70
2022-10-11T17:06:19.449Z,18.45
2022-10-11T17:08:47.338Z,25.08
2022-10-11T17:11:16.755Z,20.63
2022-10-11T17:13:45.517Z,26.58
2022-10-11T17:16:12.716Z,26.13
2022-10-11T17:18:40.184Z,28.08
2022-10-11T17:21:12.134Z,23.40
2022-10-11T17:23:39.798Z,26.33
2022-10-11T17:26:14.869Z,23.30
2022-10-11T17:28:42.509Z,24.67
2022-10-11T17:31:10.120Z,18.83
2022-10-11T17:33:38.275Z,19.67
2022-10-11T17:36:21.975Z,18.80
2022-10-11T17:38:50.943Z,24.25
2022-10-11T17:41:19.016Z,20.02
2022-10-11T17:43:46.890Z,24.40
2022-10-11T17:46:16.282Z,22.98
2022-10-11T17:48:44.738Z,23.25
2022-10-11T17:51:18.625Z,23.63
2022-10-11T17:53:48.828Z,21.75
2022-10-11T17:56:27.627Z,23.77
2022-10-11T17:58:57.875Z,23.27
2022-10-11T18:01:28.384Z,25.92
2022-10-11T18:03:59.006Z,22.30
2022-10-11T18:06:29.208Z,25.95
2022-10-11T18:09:00.369Z,25.35
2022-10-11T18:11:27.934Z,19.40
2022-10-11T18:13:55.712Z,30.85
2022-10-11T18:16:27.101Z,22.33
2022-10-11T18:18:55.146Z,24.08
2022-10-11T18:21:22.429Z,29.20
2022-10-11T18:23:49.834Z,27.60
2022-10-11T18:26:20.380Z,31.80
2022-10-11T18:28:48.708Z,24.27
2022-10-11T18:31:19.870Z,26.40
2022-10-11T18:33:47.751Z,29.52
2022-10-11T18:36:16.684Z,26.77
2022-10-11T18:38:46.748Z,26.13
2022-10-11T18:41:16.595Z,23.55
2022-10-11T18:43:48.476Z,24.02
2022-10-11T18:46:15.967Z,23.08
2022-10-11T18:48:44.788Z,21.35
2022-10-11T18:51:15.502Z,23.35
2022-10-11T18:53:43.213Z,18.63
2022-10-11T18:56:11.978Z,21.05
2022-10-11T18:58:40.509Z,22.73
2022-10-11T19:01:17.202Z,25.02
2022-10-11T19:03:46.659Z,25.50
2022-10-11T19:06:17.778Z,25.23
2022-10-11T19:08:50.840Z,24.40
2022-10-11T19:11:22.320Z,31.35
2022-10-11T19:13:56.427Z,56.30
2022-10-11T19:16:24.582Z,55.75
2022-10-11T19:18:53.079Z,54.63
2022-10-11T19:21:20.997Z,66.57
2022-10-11T19:23:49.559Z,69.53
2022-10-11T19:26:18.244Z,61.53
2022-10-11T19:28:46.486Z,61.85
2022-10-11T19:31:17.072Z,65.22
2022-10-11T19:33:48.009Z,59.38
2022-10-11T19:36:15.791Z,53.88
2022-10-11T19:38:46.251Z,55.28
2022-10-11T19:41:14.994Z,56.67
2022-10-11T19:43:42.927Z,59.38
2022-10-11T19:46:20.207Z,51.13
2022-10-11T19:48:51.411Z,53.58
2022-10-11T19:51:23.196Z,50.85
2022-10-11T19:53:57.990Z,50.17
2022-10-11T19:56:27.057Z,50.38
2022-10-11T19:58:54.921Z,55.13
2022-10-11T20:01:24.625Z,52.78
2022-10-11T20:03:56.288Z,49.92
2022-10-11T20:06:25.279Z,54.15
2022-10-11T20:09:16.640Z,47.47
2022-10-11T20:11:40.743Z,55.70
2022-10-11T20:14:08.783Z,55.03
2022-10-11T20:16:37.303Z,56.00
2022-10-11T20:19:04.798Z,55.55
2022-10-11T20:21:33.149Z,55.63
2022-10-11T20:24:02.770Z,50.17
2022-10-11T20:26:31.574Z,46.65
2022-10-11T20:28:58.879Z,54.63
2022-10-11T20:31:32.914Z,53.67
2022-10-11T20:34:04.192Z,49.80
2022-10-11T20:36:34.353Z,44.83
2022-10-11T20:39:01.758Z,48.75
2022-10-11T20:41:37.118Z,49.55
2022-10-11T20:44:05.472Z,45.33
2022-10-11T20:46:35.586Z,48.38
2022-10-11T20:49:08.745Z,56.17
2022-10-11T20:52:09.489Z,49.97
2022-10-11T20:54:36.716Z,47.67
2022-10-11T20:57:04.177Z,48.75
2022-10-11T20:59:31.481Z,39.92
2022-10-11T21:01:58.756Z,35.67
2022-10-11T21:04:26.144Z,38.53
2022-10-11T21:06:53.333Z,36.47
2022-10-11T21:09:21.148Z,38.42
2022-10-11T21:11:48.350Z,39.80
2022-10-11T21:14:15.853Z,35.88
2022-10-11T21:16:43.189Z,36.33
2022-10-11T21:19:14.048Z,32.72
2022-10-11T21:21:42.070Z,36.10
2022-10-11T21:24:10.162Z,32.72
2022-10-11T21:26:37.575Z,39.08
2022-10-11T21:29:05.089Z,38.60
2022-10-11T21:31:34.295Z,43.75
2022-10-11T21:34:02.726Z,39.42
2022-10-11T21:36:30.823Z,34.63
2022-10-11T21:38:58.215Z,37.90
2022-10-11T21:41:26.804Z,37.05
2022-10-11T21:43:54.175Z,34.67
2022-10-11T21:46:42.013Z,35.17
2022-10-11T21:49:14.732Z,34.15
2022-10-11T21:51:42.162Z,31.77
2022-10-11T21:54:09.848Z,30.92
2022-10-11T21:56:37.087Z,28.60
2022-10-11T21:59:06.657Z,31.15
2022-10-11T22:01:37.122Z,28.88
2022-10-11T22:04:05.039Z,30.17
2022-10-11T22:06:32.185Z,32.55
2022-10-11T22:09:00.747Z,28.60
2022-10-11T22:11:28.148Z,22.55
2022-10-11T22:13:55.511Z,22.42
2022-10-11T22:16:22.766Z,24.30
2022-10-11T22:18:50.051Z,34.75
2022-10-11T22:21:20.366Z,24.45
2022-10-11T22:23:49.827Z,31.13
2022-10-11T22:26:20.603Z,28.73
2022-10-11T22:28:48.863Z,24.95
2022-10-11T22:31:18.294Z,29.20
2022-10-11T22:33:46.190Z,30.35
2022-10-11T22:36:16.815Z,26.30
2022-10-11T22:38:44.360Z,27.15
2022-10-11T22:41:12.276Z,20.95
2022-10-11T22:43:40.255Z,23.48
2022-10-11T22:46:08.776Z,23.65
2022-10-11T22:48:36.036Z,19.73
2022-10-11T22:51:03.907Z,24.35
2022-10-11T22:53:31.301Z,21.70
2022-10-11T22:55:58.524Z,27.23
2022-10-11T22:58:25.984Z,21.20
2022-10-11T23:00:53.173Z,24.40
2022-10-11T23:03:20.634Z,24.30
2022-10-11T23:05:55.725Z,21.45
2022-10-11T23:08:22.980Z,26.25
2022-10-11T23:10:50.482Z,22.63
2022-10-11T23:13:17.957Z,21.65
2022-10-11T23:15:45.552Z,24.35
2022-10-11T23:18:12.964Z,24.08
2022-10-11T23:20:40.210Z,26.60
2022-10-11T23:23:07.545Z,20.23
2022-10-11T23:25:34.916Z,27.38
2022-10-11T23:28:02.400Z,29.33
2022-10-11T23:30:30.062Z,26.10
2022-10-11T23:32:57.438Z,19.08
2022-10-11T23:35:24.756Z,22.98
2022-10-11T23:37:54.374Z,22.38
2022-10-11T23:40:21.823Z,25.13
2022-10-11T23:42:49.157Z,27.60
2022-10-11T23:45:17.014Z,23.13
2022-10-11T23:47:44.475Z,25.42
2022-10-11T23:50:11.737Z,22.70
2022-10-11T23:52:41.952Z,23.00
2022-10-11T23:55:09.634Z,25.30
2022-10-11T23:57:37.131Z,25.45
